Impacts TAF Board INFO
FOR SITUATIONAL AWARENESS. NOT TO BE USED FOR FLIGHT PLANNING PURPOSES.
IDs:

KMCO - Orlando Intl, FL, US

Issued at 0900 UTC 11 Dec 2017
Updated at 1116 UTC 11 Dec 2017
Potential Impact None Slight Moderate High
Time1053Z 11/12Z 11/13Z 11/14Z 11/15Z 11/16Z 11/17Z 11/18Z 11/19Z 11/20Z 11/21Z 11/22Z 11/23Z 12/00Z>>
Type OBS PRVL PRVL PRVL PRVL PRVL PRVL PRVL PRVL PRVL PRVL PRVL PRVL PRVL
VIS 10 >6 >6 >6 >6 >6 >6 >6 >6 >6 >6 >6 >6 >6
CIG -- -- -- -- -- -- -- -- -- -- -- -- -- --
Cover CLR SKC SKC SKC SKC SKC SKC SKC SKC SKC SKC SKC SKC SKC
FltCat VFR VFR VFR VFR VFR VFR VFR VFR VFR VFR VFR VFR VFR VFR
WX -- -- -- -- -- -- -- -- -- -- -- -- -- --
WDir 360 VRB VRB VRB 330 330 330 330 330 290 290 290 290 290
WSpd 5 3 3 3 7 7 7 7 7 5 5 5 5 5
WGst -- -- -- -- -- -- -- -- -- -- -- -- -- --

Raw TAF
KMCO 110900Z 1109/1212 VRB03KT P6SM SKC
  FM111500 33007KT P6SM SKC
  FM112000 29005KT P6SM SKC
  FM120600 VRB02KT P6SM SKC


Raw METAR
KMCO 111053Z 36005KT 10SM CLR 06/02 A3029
KMCO 110953Z 32007KT 10SM CLR 05/03 A3029
KMCO 110853Z 27003KT 10SM CLR 04/04 A3029

METAR Board
Radar Display
Forecast Discussion

FOR SITUATIONAL AWARENESS. NOT TO BE USED FOR FLIGHT PLANNING PURPOSES.